createdAt,value
2018-12-08T00:03:17.860Z,78.60
2018-12-08T00:08:20.424Z,78.80
2018-12-08T00:13:22.998Z,79.00
2018-12-08T00:18:26.332Z,79.20
2018-12-08T00:23:29.376Z,78.20
2018-12-08T00:28:31.937Z,79.80
2018-12-08T00:33:34.964Z,80.80
2018-12-08T00:38:37.544Z,80.40
2018-12-08T00:43:40.124Z,77.80
2018-12-08T00:48:42.702Z,75.00
2018-12-08T00:53:46.809Z,73.40
2018-12-08T00:58:49.657Z,72.20
2018-12-08T01:03:52.504Z,74.00
2018-12-08T01:08:55.586Z,72.50
2018-12-08T01:13:58.150Z,72.90
2018-12-08T01:19:02.587Z,74.10
2018-12-08T01:24:05.460Z,73.00
2018-12-08T01:29:08.058Z,73.10
2018-12-08T01:34:10.635Z,72.90
2018-12-08T01:39:13.632Z,71.50
2018-12-08T01:44:16.655Z,71.00
2018-12-08T01:49:19.527Z,71.00
2018-12-08T01:54:22.400Z,70.70
2018-12-08T01:59:26.154Z,70.90
2018-12-08T02:04:41.978Z,70.60
2018-12-08T02:09:44.674Z,69.80
2018-12-08T02:14:47.282Z,70.20
2018-12-08T02:19:49.860Z,70.30
2018-12-08T02:24:52.437Z,70.50
2018-12-08T02:29:55.024Z,70.10
2018-12-08T02:34:58.197Z,69.20
2018-12-08T02:40:01.059Z,68.80
2018-12-08T02:45:03.801Z,67.50
2018-12-08T02:50:06.527Z,66.80
2018-12-08T02:55:09.665Z,66.20
2018-12-08T03:00:12.296Z,65.80
2018-12-08T03:05:15.990Z,65.10
2018-12-08T03:10:19.310Z,64.30
2018-12-08T03:15:25.006Z,63.80
2018-12-08T03:20:27.613Z,64.50
2018-12-08T03:25:32.779Z,64.70
2018-12-08T03:30:35.896Z,63.90
2018-12-08T03:35:38.481Z,62.90
2018-12-08T03:40:41.050Z,62.90
2018-12-08T03:45:43.620Z,63.70
2018-12-08T03:50:46.197Z,64.00
2018-12-08T03:55:48.897Z,64.50
2018-12-08T04:00:51.467Z,64.50
2018-12-08T04:05:55.428Z,67.50
2018-12-08T04:10:58.449Z,68.10
2018-12-08T04:16:01.354Z,68.70
2018-12-08T04:21:03.921Z,68.20
2018-12-08T04:26:06.484Z,67.40
2018-12-08T04:31:09.692Z,66.30
2018-12-08T04:36:14.802Z,66.30
2018-12-08T04:41:17.909Z,65.00
2018-12-08T04:46:20.529Z,64.20
2018-12-08T04:51:23.098Z,63.70
2018-12-08T04:56:26.530Z,64.40
2018-12-08T05:01:29.142Z,64.10
2018-12-08T05:06:31.964Z,63.10
2018-12-08T05:11:35.098Z,63.70
2018-12-08T05:16:37.897Z,63.00
2018-12-08T05:21:40.523Z,62.70
2018-12-08T05:26:43.093Z,62.70
2018-12-08T05:31:45.675Z,62.60
2018-12-08T05:36:48.258Z,61.80
2018-12-08T05:41:50.838Z,62.30
2018-12-08T05:46:53.416Z,61.90
2018-12-08T05:51:56.002Z,62.00
2018-12-08T05:56:58.730Z,62.20
2018-12-08T06:02:01.318Z,62.20
2018-12-08T06:07:03.905Z,62.10
2018-12-08T06:12:06.482Z,61.90
2018-12-08T06:17:09.411Z,61.50
2018-12-08T06:22:11.983Z,61.00
2018-12-08T06:27:15.510Z,60.70
2018-12-08T06:32:18.129Z,60.80
2018-12-08T06:37:20.713Z,60.40
2018-12-08T06:42:23.302Z,60.40
2018-12-08T06:47:25.876Z,60.40
2018-12-08T06:52:28.457Z,60.80
2018-12-08T06:57:31.060Z,60.30
2018-12-08T07:02:33.633Z,59.90
2018-12-08T07:07:37.158Z,59.60
2018-12-08T07:12:39.923Z,60.00
2018-12-08T07:17:42.516Z,60.00
2018-12-08T07:22:45.161Z,60.20
2018-12-08T07:27:47.759Z,60.10
2018-12-08T07:32:50.393Z,60.10
2018-12-08T07:37:53.090Z,60.50
2018-12-08T07:42:55.719Z,60.10
2018-12-08T07:47:58.286Z,59.40
2018-12-08T07:53:01.277Z,59.60
2018-12-08T07:58:04.703Z,59.10
2018-12-08T08:03:07.278Z,59.40
2018-12-08T08:08:09.855Z,59.30
2018-12-08T08:13:13.169Z,59.80
2018-12-08T08:18:15.750Z,60.40
2018-12-08T08:23:18.330Z,61.10
2018-12-08T08:28:20.930Z,61.70
2018-12-08T08:33:23.525Z,62.20
2018-12-08T08:38:26.119Z,62.10
2018-12-08T08:43:28.683Z,62.70
2018-12-08T08:48:31.286Z,62.80
2018-12-08T08:53:33.873Z,62.20
2018-12-08T08:58:36.457Z,62.50
2018-12-08T09:03:39.106Z,62.10
2018-12-08T09:08:41.670Z,62.20
2018-12-08T09:13:44.267Z,62.10
2018-12-08T09:18:47.006Z,62.30
2018-12-08T09:23:49.603Z,61.50
2018-12-08T09:28:52.186Z,62.00
2018-12-08T09:33:55.395Z,60.80
2018-12-08T09:38:57.996Z,61.40
2018-12-08T09:44:00.576Z,61.00
2018-12-08T09:49:04.246Z,62.20
2018-12-08T09:54:06.851Z,62.00
2018-12-08T09:59:09.413Z,61.50
2018-12-08T10:04:11.981Z,61.60
2018-12-08T10:09:14.555Z,61.50
2018-12-08T10:14:17.172Z,61.10
2018-12-08T10:19:19.748Z,61.40
2018-12-08T10:24:22.354Z,60.90
2018-12-08T10:29:24.932Z,59.80
2018-12-08T10:34:27.754Z,58.30
2018-12-08T10:39:30.409Z,54.90
2018-12-08T10:44:32.980Z,52.50
2018-12-08T10:49:35.626Z,50.50
2018-12-08T10:54:38.226Z,53.90
2018-12-08T10:59:40.805Z,54.70
2018-12-08T11:04:43.390Z,54.90
2018-12-08T11:09:47.277Z,55.20
2018-12-08T11:15:35.438Z,56.20
2018-12-08T11:20:38.734Z,56.50
2018-12-08T11:25:41.297Z,55.30
2018-12-08T11:30:43.888Z,55.20
2018-12-08T11:35:46.457Z,51.90
2018-12-08T11:40:50.124Z,54.60
2018-12-08T11:45:52.813Z,58.90
2018-12-08T11:50:55.474Z,60.90
2018-12-08T11:55:58.119Z,61.50
2018-12-08T12:01:00.692Z,60.60
2018-12-08T12:06:03.542Z,61.80
2018-12-08T12:11:06.127Z,63.60
2018-12-08T12:16:08.713Z,63.50
2018-12-08T12:21:11.349Z,63.90
2018-12-08T12:26:13.993Z,63.20
2018-12-08T12:31:16.563Z,62.60
2018-12-08T12:36:19.185Z,62.80
2018-12-08T12:41:21.789Z,63.30
2018-12-08T12:46:25.226Z,62.80
2018-12-08T12:51:28.071Z,63.10
2018-12-08T12:56:30.634Z,63.60
2018-12-08T13:01:33.279Z,63.30
2018-12-08T13:06:36.132Z,64.20
2018-12-08T13:11:38.774Z,65.40
2018-12-08T13:16:41.614Z,66.50
2018-12-08T13:21:44.202Z,66.70
2018-12-08T13:26:46.802Z,68.80
2018-12-08T13:31:50.183Z,70.00
2018-12-08T13:36:52.791Z,68.50
2018-12-08T13:41:55.414Z,68.30
2018-12-08T13:46:58.007Z,66.80
2018-12-08T13:52:00.658Z,66.50
2018-12-08T13:57:03.555Z,65.90
2018-12-08T14:02:07.768Z,65.90
2018-12-08T14:07:10.358Z,65.70
2018-12-08T14:12:12.960Z,66.30
2018-12-08T14:17:15.562Z,68.00
2018-12-08T14:22:18.149Z,67.90
2018-12-08T14:27:20.898Z,68.70
2018-12-08T14:32:23.764Z,69.00
2018-12-08T14:37:26.344Z,69.40
2018-12-08T14:42:29.930Z,69.70
2018-12-08T14:47:33.797Z,69.50
2018-12-08T14:52:36.379Z,70.30
2018-12-08T14:57:38.934Z,71.60
2018-12-08T15:02:41.506Z,72.60
2018-12-08T15:07:44.162Z,72.80
2018-12-08T15:12:46.753Z,73.70
2018-12-08T15:17:49.347Z,73.20
2018-12-08T15:22:51.914Z,72.90
2018-12-08T15:27:54.578Z,73.40
2018-12-08T15:32:58.501Z,72.60
2018-12-08T15:38:01.111Z,72.00
2018-12-08T15:43:03.670Z,70.80
2018-12-08T15:48:06.316Z,70.60
2018-12-08T15:53:08.982Z,69.70
2018-12-08T15:58:11.566Z,69.00
2018-12-08T16:03:14.135Z,68.70
2018-12-08T16:08:16.741Z,68.90
2018-12-08T16:13:19.322Z,68.70
2018-12-08T16:18:21.975Z,68.70
2018-12-08T16:23:24.567Z,68.70
2018-12-08T16:28:27.174Z,68.80
2018-12-08T16:33:30.162Z,68.70
2018-12-08T16:38:32.717Z,68.40
2018-12-08T16:43:35.332Z,67.70
2018-12-08T16:48:37.991Z,67.60
2018-12-08T16:53:40.621Z,67.70
2018-12-08T16:58:43.214Z,66.90
2018-12-08T17:03:45.783Z,67.30
2018-12-08T17:08:48.575Z,66.70
2018-12-08T17:13:52.080Z,66.60
2018-12-08T17:18:55.436Z,66.00
2018-12-08T17:23:58.010Z,65.40
2018-12-08T17:29:00.574Z,65.40
2018-12-08T17:34:03.137Z,65.40
2018-12-08T17:39:05.872Z,65.40
2018-12-08T17:44:08.447Z,64.90
2018-12-08T17:49:11.039Z,65.30
2018-12-08T17:54:13.625Z,65.60
2018-12-08T17:59:16.212Z,65.30
2018-12-08T18:04:18.773Z,65.30
2018-12-08T18:09:21.365Z,65.20
2018-12-08T18:14:26.417Z,64.90
2018-12-08T18:19:29.006Z,64.90
2018-12-08T18:24:31.583Z,65.10
2018-12-08T18:29:34.302Z,65.60
2018-12-08T18:34:37.173Z,65.30
2018-12-08T18:39:39.740Z,65.70
2018-12-08T18:44:42.335Z,65.10
2018-12-08T18:49:45.015Z,65.50
2018-12-08T18:54:47.848Z,67.00
2018-12-08T18:59:50.458Z,67.30
2018-12-08T19:04:53.145Z,68.30
2018-12-08T19:09:55.844Z,69.30
2018-12-08T19:14:58.465Z,69.90
2018-12-08T19:20:01.161Z,70.80
2018-12-08T19:25:04.145Z,71.60
2018-12-08T19:30:08.519Z,71.70
2018-12-08T19:35:11.094Z,70.80
2018-12-08T19:40:13.657Z,70.80
2018-12-08T19:45:16.344Z,70.70
2018-12-08T19:50:19.142Z,71.40
2018-12-08T19:55:21.699Z,71.20
2018-12-08T20:00:24.277Z,71.60
2018-12-08T20:05:26.858Z,72.00
2018-12-08T20:10:29.426Z,72.10
2018-12-08T20:15:31.993Z,74.20
2018-12-08T20:20:34.551Z,76.00
2018-12-08T20:25:37.119Z,76.60
2018-12-08T20:30:41.345Z,75.30
2018-12-08T20:35:43.904Z,75.50
2018-12-08T20:40:46.456Z,76.00
2018-12-08T20:45:49.454Z,75.60
2018-12-08T20:50:52.118Z,76.00
2018-12-08T20:55:54.674Z,76.20
2018-12-08T21:00:57.327Z,76.70
2018-12-08T21:05:59.925Z,77.60
2018-12-08T21:11:02.560Z,77.80
2018-12-08T21:16:05.126Z,77.60
2018-12-08T21:21:08.362Z,77.60
2018-12-08T21:26:10.934Z,78.10
2018-12-08T21:31:13.524Z,78.00
2018-12-08T21:36:16.536Z,77.40
2018-12-08T21:41:19.115Z,78.00
2018-12-08T21:46:21.698Z,78.70
2018-12-08T21:51:24.639Z,77.80
2018-12-08T21:56:27.190Z,77.50
2018-12-08T22:01:29.762Z,77.60
2018-12-08T22:06:32.350Z,77.50
2018-12-08T22:11:34.952Z,78.50
2018-12-08T22:16:37.552Z,78.50
2018-12-08T22:21:40.113Z,79.70
2018-12-08T22:26:42.674Z,80.90
2018-12-08T22:31:45.244Z,81.30
2018-12-08T22:36:47.821Z,82.30
2018-12-08T22:41:50.374Z,81.60
2018-12-08T22:46:52.930Z,82.10
2018-12-08T22:51:55.569Z,80.80
2018-12-08T22:56:58.126Z,80.20
2018-12-08T23:02:00.677Z,79.60
2018-12-08T23:07:03.840Z,79.20
2018-12-08T23:12:06.422Z,78.00
2018-12-08T23:17:09.113Z,76.90
2018-12-08T23:22:11.715Z,76.40
2018-12-08T23:27:14.327Z,75.70
2018-12-08T23:32:16.884Z,75.60
2018-12-08T23:37:19.454Z,75.00
2018-12-08T23:42:22.051Z,74.10
2018-12-08T23:47:24.697Z,73.80
2018-12-08T23:52:27.323Z,73.50
2018-12-08T23:57:29.901Z,73.20
